createdAt,value
2023-01-19T05:29:58.508Z,2.83
2023-01-19T05:34:01.633Z,2.65
2023-01-19T05:38:04.391Z,4.12
2023-01-19T05:42:07.633Z,3.40
2023-01-19T05:46:10.259Z,3.08
2023-01-19T05:50:13.196Z,3.17
2023-01-19T05:54:15.863Z,3.70
2023-01-19T05:58:18.946Z,4.22
2023-01-19T06:02:28.630Z,2.87
2023-01-19T06:06:32.001Z,3.30
2023-01-19T06:10:34.806Z,3.67
2023-01-19T06:14:38.219Z,3.25
2023-01-19T06:18:41.309Z,3.33
2023-01-19T06:22:44.302Z,4.20
2023-01-19T06:26:47.154Z,4.80
2023-01-19T06:30:54.264Z,3.03
2023-01-19T06:34:57.205Z,4.87
2023-01-19T06:39:03.654Z,3.17
2023-01-19T06:43:07.502Z,2.47
2023-01-19T06:47:15.928Z,3.40
2023-01-19T06:51:18.969Z,3.65
2023-01-19T06:55:22.212Z,5.78
2023-01-19T06:59:27.936Z,3.28
2023-01-19T07:03:31.672Z,4.77
2023-01-19T07:07:34.331Z,4.35
2023-01-19T07:11:37.303Z,3.85
2023-01-19T07:15:40.122Z,3.70
2023-01-19T07:19:43.196Z,3.58
2023-01-19T07:23:49.391Z,2.95
2023-01-19T07:27:52.620Z,5.13
2023-01-19T07:31:55.389Z,3.87
2023-01-19T07:35:58.681Z,4.47
2023-01-19T07:40:01.586Z,6.57
2023-01-19T07:44:05.482Z,4.07
2023-01-19T07:48:08.320Z,5.95
2023-01-19T07:52:13.348Z,3.50
2023-01-19T07:56:16.936Z,5.50
2023-01-19T08:00:22.375Z,3.37
2023-01-19T08:04:30.630Z,3.03
2023-01-19T08:08:34.119Z,3.33
2023-01-19T08:12:37.528Z,3.45
2023-01-19T08:16:40.345Z,3.08
2023-01-19T08:20:43.662Z,4.62
2023-01-19T08:24:46.944Z,4.73
2023-01-19T08:28:51.345Z,3.85
2023-01-19T08:32:58.391Z,4.10
2023-01-19T08:37:01.907Z,3.60
2023-01-19T08:41:04.835Z,4.45
2023-01-19T08:45:09.429Z,7.45
2023-01-19T08:49:18.201Z,9.60
2023-01-19T08:53:44.216Z,6.82
2023-01-19T08:57:51.040Z,5.25
2023-01-19T09:01:59.980Z,7.97
2023-01-19T09:06:05.652Z,6.43
2023-01-19T09:10:10.633Z,6.25
2023-01-19T09:14:13.695Z,7.70
2023-01-19T09:18:20.043Z,5.03
2023-01-19T09:22:23.193Z,4.72
2023-01-19T09:26:26.379Z,4.60
2023-01-19T09:30:29.473Z,4.80
2023-01-19T09:34:32.762Z,3.78
2023-01-19T09:38:35.674Z,6.25
2023-01-19T09:42:51.983Z,7.93
2023-01-19T09:46:54.570Z,5.50
2023-01-19T09:51:01.314Z,5.93
2023-01-19T09:55:04.176Z,6.95
2023-01-19T09:59:24.773Z,8.83
2023-01-19T10:03:27.558Z,6.60
2023-01-19T10:07:36.872Z,8.60
2023-01-19T10:11:53.168Z,9.03
2023-01-19T10:16:14.919Z,6.80
2023-01-19T10:20:26.656Z,9.05
2023-01-19T10:24:33.494Z,10.45
2023-01-19T10:28:36.763Z,11.23
2023-01-19T10:32:41.878Z,6.97
2023-01-19T10:36:49.776Z,8.07
2023-01-19T10:41:03.729Z,10.53
2023-01-19T10:45:40.896Z,12.48
2023-01-19T10:50:01.895Z,9.10
2023-01-19T10:54:36.296Z,9.63
2023-01-19T10:58:55.101Z,6.95
2023-01-19T11:03:34.693Z,5.85
2023-01-19T11:07:46.524Z,5.45
2023-01-19T11:12:20.288Z,13.30
2023-01-19T11:16:32.576Z,10.02
2023-01-19T11:20:55.614Z,9.20
2023-01-19T11:25:05.725Z,19.27
2023-01-19T11:29:26.850Z,14.05
2023-01-19T11:33:52.980Z,16.17
2023-01-19T11:38:13.826Z,10.60
2023-01-19T11:42:18.605Z,15.07
2023-01-19T11:46:35.279Z,9.10
2023-01-19T11:50:45.677Z,16.35
2023-01-19T11:55:18.221Z,11.53
2023-01-19T11:59:27.160Z,8.98
2023-01-19T12:04:19.312Z,7.62
2023-01-19T12:09:16.595Z,10.97
2023-01-19T12:13:25.452Z,8.95
2023-01-19T12:17:51.342Z,20.90
2023-01-19T12:22:00.202Z,13.33
2023-01-19T12:26:33.507Z,12.75
2023-01-19T12:30:38.661Z,20.33
2023-01-19T12:34:56.784Z,24.15
2023-01-19T12:39:21.824Z,13.53
2023-01-19T12:43:25.608Z,8.80
2023-01-19T12:47:28.403Z,8.68
2023-01-19T12:51:32.200Z,13.37
2023-01-19T12:55:39.375Z,19.85
2023-01-19T12:59:44.099Z,20.67
2023-01-19T13:04:02.612Z,19.40
2023-01-19T13:08:06.215Z,18.83
2023-01-19T13:12:15.028Z,14.52
2023-01-19T13:16:21.355Z,23.10
2023-01-19T13:20:31.315Z,16.87
2023-01-19T13:25:08.344Z,21.80
2023-01-19T13:29:16.560Z,18.35
2023-01-19T13:33:24.385Z,23.47
2023-01-19T13:37:41.694Z,17.98
2023-01-19T13:41:45.445Z,19.73
2023-01-19T13:45:53.346Z,16.80
2023-01-19T13:49:57.814Z,16.10
2023-01-19T13:54:03.892Z,13.48
2023-01-19T13:58:22.576Z,17.20
2023-01-19T14:02:25.405Z,15.77
2023-01-19T14:06:45.599Z,16.50
2023-01-19T14:11:02.350Z,12.10
2023-01-19T14:15:13.136Z,13.93
2023-01-19T14:19:15.898Z,19.15
2023-01-19T14:23:38.699Z,22.50
2023-01-19T14:27:41.442Z,14.80
2023-01-19T14:31:53.280Z,16.48
2023-01-19T14:35:55.956Z,19.58
2023-01-19T14:40:08.313Z,20.70
2023-01-19T14:44:11.728Z,10.07
2023-01-19T14:48:19.501Z,19.42
2023-01-19T14:52:23.623Z,25.02
2023-01-19T14:56:28.981Z,26.07
2023-01-19T15:00:31.984Z,16.60
2023-01-19T15:04:35.053Z,24.30
2023-01-19T15:08:39.520Z,22.37
2023-01-19T15:12:42.662Z,19.62
2023-01-19T15:16:45.574Z,13.25
2023-01-19T15:20:48.648Z,17.15
2023-01-19T15:24:51.362Z,17.80
2023-01-19T15:28:55.959Z,23.20
2023-01-19T15:32:59.220Z,20.60
2023-01-19T15:37:02.174Z,29.30
2023-01-19T15:41:09.535Z,25.48
2023-01-19T15:45:25.814Z,28.45
2023-01-19T15:49:30.974Z,22.53
